createdAt,value
2018-08-13T00:02:41.233Z,42.70
2018-08-13T00:07:45.316Z,43.52
2018-08-13T00:12:48.781Z,43.03
2018-08-13T00:17:52.333Z,42.83
2018-08-13T00:22:55.987Z,42.78
2018-08-13T00:28:00.217Z,42.26
2018-08-13T00:33:03.735Z,42.27
2018-08-13T00:38:07.365Z,43.28
2018-08-13T00:43:10.848Z,43.21
2018-08-13T00:48:14.309Z,42.11
2018-08-13T00:53:17.882Z,42.37
2018-08-13T00:58:21.353Z,41.38
2018-08-13T01:03:24.823Z,41.87
2018-08-13T01:08:28.416Z,41.89
2018-08-13T01:13:31.974Z,42.50
2018-08-13T01:18:35.494Z,42.17
2018-08-13T01:23:39.129Z,42.11
2018-08-13T01:28:42.686Z,42.75
2018-08-13T01:33:46.255Z,42.83
2018-08-13T01:38:49.808Z,43.50
2018-08-13T01:43:53.329Z,43.82
2018-08-13T01:48:56.829Z,44.27
2018-08-13T01:54:00.418Z,45.50
2018-08-13T01:59:03.947Z,44.89
2018-08-13T02:04:07.490Z,45.08
2018-08-13T02:09:12.292Z,45.26
2018-08-13T02:14:15.786Z,46.70
2018-08-13T02:19:19.625Z,46.69
2018-08-13T02:24:23.150Z,45.51
2018-08-13T02:29:27.388Z,45.51
2018-08-13T02:34:30.881Z,46.65
2018-08-13T02:39:34.427Z,47.89
2018-08-13T02:44:38.310Z,47.55
2018-08-13T02:49:41.833Z,46.83
2018-08-13T02:54:45.331Z,47.07
2018-08-13T02:59:48.810Z,47.14
2018-08-13T03:04:53.210Z,47.00
2018-08-13T03:09:56.754Z,46.96
2018-08-13T03:15:00.327Z,47.35
2018-08-13T03:20:03.981Z,48.64
2018-08-13T03:25:09.469Z,47.74
2018-08-13T03:30:13.861Z,47.56
2018-08-13T03:35:17.425Z,47.62
2018-08-13T03:40:20.918Z,47.61
2018-08-13T03:45:24.402Z,47.80
2018-08-13T03:50:27.916Z,48.13
2018-08-13T03:55:31.490Z,48.56
2018-08-13T04:00:35.031Z,48.06
2018-08-13T04:05:38.517Z,48.92
2018-08-13T04:10:42.082Z,49.52
2018-08-13T04:15:45.590Z,48.56
2018-08-13T04:20:49.073Z,49.06
2018-08-13T04:25:53.276Z,49.19
2018-08-13T04:30:56.820Z,48.98
2018-08-13T04:36:00.363Z,48.39
2018-08-13T04:41:03.893Z,47.56
2018-08-13T04:46:07.669Z,47.12
2018-08-13T04:51:11.194Z,46.87
2018-08-13T04:56:14.746Z,46.78
2018-08-13T05:01:18.264Z,46.57
2018-08-13T05:06:21.838Z,46.42
2018-08-13T05:11:25.401Z,47.08
2018-08-13T05:16:35.513Z,46.83
2018-08-13T05:21:39.097Z,46.85
2018-08-13T05:26:42.721Z,46.50
2018-08-13T05:31:46.409Z,45.78
2018-08-13T05:36:49.929Z,45.55
2018-08-13T05:41:53.453Z,45.18
2018-08-13T05:46:56.965Z,45.51
2018-08-13T05:52:00.488Z,44.18
2018-08-13T05:57:03.994Z,44.71
2018-08-13T06:02:07.484Z,44.44
2018-08-13T06:07:11.036Z,43.88
2018-08-13T06:12:14.665Z,43.72
2018-08-13T06:17:18.169Z,43.44
2018-08-13T06:22:21.715Z,43.36
2018-08-13T06:27:25.178Z,43.50
2018-08-13T06:32:28.752Z,43.45
2018-08-13T06:37:32.380Z,42.80
2018-08-13T06:42:35.881Z,41.24
2018-08-13T06:47:40.264Z,41.83
2018-08-13T06:52:44.047Z,41.26
2018-08-13T06:57:47.628Z,41.28
2018-08-13T07:02:51.164Z,40.79
2018-08-13T07:07:54.634Z,40.98
2018-08-13T07:12:58.150Z,40.66
2018-08-13T07:18:01.643Z,40.38
2018-08-13T07:23:05.124Z,39.36
2018-08-13T07:28:08.776Z,39.22
2018-08-13T07:33:12.261Z,38.07
2018-08-13T07:38:15.768Z,37.80
2018-08-13T07:43:19.244Z,37.98
2018-08-13T07:48:22.861Z,38.12
2018-08-13T07:53:26.330Z,37.38
2018-08-13T07:58:29.854Z,37.24
2018-08-13T08:03:33.496Z,35.82
2018-08-13T08:08:37.009Z,35.75
2018-08-13T08:13:40.501Z,34.78
2018-08-13T08:18:44.026Z,34.84
2018-08-13T08:23:47.520Z,33.87
2018-08-13T08:28:51.103Z,33.70
2018-08-13T08:33:54.620Z,32.03
2018-08-13T08:38:58.166Z,32.15
2018-08-13T08:44:01.732Z,30.47
2018-08-13T08:49:05.234Z,28.95
2018-08-13T08:54:10.167Z,29.79
2018-08-13T08:59:13.673Z,29.63
2018-08-13T09:04:17.254Z,34.61
2018-08-13T09:09:20.871Z,35.04
2018-08-13T09:14:24.333Z,32.73
2018-08-13T09:19:38.904Z,30.87
2018-08-13T09:24:53.714Z,29.91
2018-08-13T09:32:10.111Z,29.88
2018-08-13T09:37:13.623Z,29.20
2018-08-13T09:42:17.137Z,28.60
2018-08-13T09:47:20.566Z,27.63
2018-08-13T09:52:24.093Z,27.97
2018-08-13T09:57:27.651Z,28.11
2018-08-13T10:02:31.265Z,27.90
2018-08-13T10:07:34.770Z,28.50
2018-08-13T10:12:38.251Z,28.48
2018-08-13T10:17:41.839Z,28.21
2018-08-13T10:22:45.471Z,29.10
2018-08-13T10:27:48.943Z,26.74
2018-08-13T10:32:52.558Z,26.15
2018-08-13T10:37:56.090Z,26.43
2018-08-13T10:42:59.826Z,25.29
2018-08-13T10:48:03.322Z,25.85
2018-08-13T10:53:06.897Z,25.22
2018-08-13T10:58:10.417Z,25.93
2018-08-13T11:03:13.881Z,25.41
2018-08-13T11:08:17.411Z,24.65
2018-08-13T11:13:21.087Z,24.90
2018-08-13T11:18:24.585Z,25.23
2018-08-13T11:23:28.105Z,24.56
2018-08-13T11:28:31.586Z,24.61
2018-08-13T11:33:35.043Z,23.58
2018-08-13T11:38:38.577Z,23.49
2018-08-13T11:43:42.094Z,24.07
2018-08-13T11:48:45.621Z,23.10
2018-08-13T11:53:49.118Z,21.69
2018-08-13T11:58:52.726Z,23.77
2018-08-13T12:03:56.223Z,24.48
2018-08-13T12:08:59.746Z,25.66
2018-08-13T12:14:03.359Z,26.10
2018-08-13T12:19:07.122Z,25.71
2018-08-13T12:24:10.680Z,25.70
2018-08-13T12:29:14.209Z,24.43
2018-08-13T12:34:17.722Z,24.63
2018-08-13T12:39:21.167Z,24.62
2018-08-13T12:44:24.753Z,24.25
2018-08-13T12:49:28.344Z,24.57
2018-08-13T12:54:31.884Z,25.37
2018-08-13T12:59:35.418Z,25.64
2018-08-13T13:04:38.913Z,26.55
2018-08-13T13:09:42.414Z,26.11
2018-08-13T13:14:45.917Z,27.12
2018-08-13T13:19:49.389Z,28.32
2018-08-13T13:24:52.941Z,29.01
2018-08-13T13:29:56.386Z,29.39
2018-08-13T13:34:59.918Z,29.73
2018-08-13T13:40:03.981Z,31.22
2018-08-13T13:45:08.844Z,33.05
2018-08-13T13:50:14.705Z,34.34
2018-08-13T13:55:18.318Z,36.38
2018-08-13T14:00:22.496Z,36.92
2018-08-13T14:05:25.955Z,37.83
2018-08-13T14:10:29.472Z,37.98
2018-08-13T14:15:32.980Z,39.26
2018-08-13T14:20:36.593Z,40.45
2018-08-13T14:25:40.197Z,40.68
2018-08-13T14:30:43.785Z,41.76
2018-08-13T14:35:47.722Z,48.95
2018-08-13T14:40:51.667Z,50.79
2018-08-13T14:45:55.200Z,52.13
2018-08-13T14:50:58.764Z,52.64
2018-08-13T14:56:02.325Z,53.16
2018-08-13T15:01:05.809Z,53.95
2018-08-13T15:06:09.272Z,54.24
2018-08-13T15:11:12.907Z,54.58
2018-08-13T15:16:16.679Z,55.09
2018-08-13T15:21:20.518Z,55.20
2018-08-13T15:26:24.222Z,54.53
2018-08-13T15:31:27.747Z,55.74
2018-08-13T15:36:31.385Z,55.99
2018-08-13T15:41:34.935Z,56.41
2018-08-13T15:46:38.377Z,55.13
2018-08-13T15:51:41.908Z,55.32
2018-08-13T15:56:45.672Z,55.21
2018-08-13T16:01:49.423Z,54.77
2018-08-13T16:06:53.060Z,54.48
2018-08-13T16:11:56.607Z,54.94
2018-08-13T16:17:00.246Z,54.62
2018-08-13T16:22:03.982Z,54.36
2018-08-13T16:27:07.534Z,55.22
2018-08-13T16:32:11.165Z,54.88
2018-08-13T16:37:16.503Z,54.20
2018-08-13T16:42:22.573Z,57.02
2018-08-13T16:47:27.552Z,56.63
2018-08-13T16:52:32.094Z,56.86
2018-08-13T16:57:37.395Z,57.10
2018-08-13T17:02:41.376Z,55.04
2018-08-13T17:07:45.297Z,55.98
2018-08-13T17:12:50.523Z,51.61
2018-08-13T17:17:56.871Z,50.45
2018-08-13T17:23:02.034Z,51.20
2018-08-13T17:28:07.040Z,50.11
2018-08-13T17:33:12.458Z,50.86
2018-08-13T17:38:17.258Z,51.37
2018-08-13T17:43:22.003Z,50.65
2018-08-13T17:48:26.157Z,51.15
2018-08-13T17:53:30.796Z,50.74
2018-08-13T17:58:35.343Z,51.23
2018-08-13T18:03:39.700Z,51.23
2018-08-13T18:08:44.447Z,51.47
2018-08-13T18:13:49.810Z,51.69
2018-08-13T18:18:54.526Z,51.32
2018-08-13T18:23:59.220Z,52.27
2018-08-13T18:29:03.901Z,53.25
2018-08-13T18:34:08.728Z,53.29
2018-08-13T18:39:12.189Z,53.69
2018-08-13T18:44:16.110Z,53.74
2018-08-13T18:49:20.479Z,54.28
2018-08-13T18:54:23.989Z,54.68
2018-08-13T18:59:27.488Z,54.70
2018-08-13T19:04:31.014Z,55.44
2018-08-13T19:09:34.542Z,55.42
2018-08-13T19:14:38.006Z,55.67
2018-08-13T19:19:41.525Z,56.24
2018-08-13T19:24:45.094Z,56.21
2018-08-13T19:29:48.594Z,56.86
2018-08-13T19:34:52.224Z,57.37
2018-08-13T19:39:55.737Z,57.08
2018-08-13T19:44:59.233Z,57.28
2018-08-13T19:50:03.359Z,57.55
2018-08-13T19:55:08.338Z,58.29
2018-08-13T20:00:17.679Z,58.65
2018-08-13T20:05:22.692Z,58.29
2018-08-13T20:20:31.370Z,58.80
2018-08-13T20:25:34.948Z,59.50
2018-08-13T20:30:38.644Z,58.96
2018-08-13T20:35:42.367Z,58.43
2018-08-13T20:40:45.870Z,59.48
2018-08-13T20:45:49.319Z,58.53
2018-08-13T20:50:52.943Z,57.97
2018-08-13T20:55:56.461Z,58.05
2018-08-13T21:01:00.150Z,58.09
2018-08-13T21:06:03.721Z,57.64
2018-08-13T21:11:07.278Z,57.66
2018-08-13T21:16:10.798Z,57.40
2018-08-13T21:21:14.400Z,57.32
2018-08-13T21:26:18.010Z,57.33
2018-08-13T21:31:21.662Z,57.81
2018-08-13T21:36:25.219Z,57.63
2018-08-13T21:41:28.769Z,57.95
2018-08-13T21:46:32.336Z,56.91
2018-08-13T21:51:35.958Z,57.24
2018-08-13T21:56:39.590Z,57.21
2018-08-13T22:01:47.083Z,57.45
2018-08-13T22:06:50.599Z,57.02
2018-08-13T22:11:54.135Z,57.20
2018-08-13T22:16:57.657Z,57.87
2018-08-13T22:22:01.248Z,57.55
2018-08-13T22:27:04.824Z,57.57
2018-08-13T22:32:08.399Z,58.07
2018-08-13T22:37:12.068Z,57.72
2018-08-13T22:42:15.554Z,58.21
2018-08-13T22:47:18.993Z,58.29
2018-08-13T22:52:22.549Z,58.12
2018-08-13T22:57:26.138Z,57.78
2018-08-13T23:02:29.757Z,57.88
2018-08-13T23:07:33.340Z,57.11
2018-08-13T23:12:37.328Z,57.84
2018-08-13T23:17:41.589Z,57.78
2018-08-13T23:22:48.779Z,58.18
2018-08-13T23:27:53.749Z,58.26
2018-08-13T23:32:58.164Z,58.24
2018-08-13T23:38:01.769Z,58.69
2018-08-13T23:43:05.278Z,58.97
2018-08-13T23:48:08.920Z,58.89
2018-08-13T23:53:12.463Z,59.01
2018-08-13T23:58:15.985Z,58.71
